sensor_id;sensor_type;location;lat;lon;timestamp;pressure;altitude;pressure_sealevel;temperature;humidity
69766;BME280;57039;48.014;21.384;2023-03-01T00:00:23;101778.53;;;2.65;97.82
69766;BME280;57039;48.014;21.384;2023-03-01T00:01:30;101781.97;;;2.65;97.93
69766;BME280;57039;48.014;21.384;2023-03-01T00:02:33;101774.22;;;2.64;97.94
69766;BME280;57039;48.014;21.384;2023-03-01T00:03:37;101787.19;;;2.61;97.85
69766;BME280;57039;48.014;21.384;2023-03-01T00:04:40;101780.25;;;2.63;97.79
69766;BME280;57039;48.014;21.384;2023-03-01T00:05:46;101772.50;;;2.58;97.76
69766;BME280;57039;48.014;21.384;2023-03-01T00:06:50;101773.34;;;2.65;97.76
69766;BME280;57039;48.014;21.384;2023-03-01T00:07:53;101777.66;;;2.66;97.80
69766;BME280;57039;48.014;21.384;2023-03-01T00:08:56;101780.25;;;2.64;97.55
69766;BME280;57039;48.014;21.384;2023-03-01T00:09:59;101771.63;;;2.65;97.57
69766;BME280;57039;48.014;21.384;2023-03-01T00:11:08;101773.34;;;2.65;97.61
69766;BME280;57039;48.014;21.384;2023-03-01T00:12:13;101775.06;;;2.63;97.49
69766;BME280;57039;48.014;21.384;2023-03-01T00:13:16;101775.06;;;2.63;97.29
69766;BME280;57039;48.014;21.384;2023-03-01T00:14:18;101771.63;;;2.61;97.44
69766;BME280;57039;48.014;21.384;2023-03-01T00:15:21;101780.28;;;2.58;97.49
69766;BME280;57039;48.014;21.384;2023-03-01T00:16:29;101769.03;;;2.61;97.63
69766;BME280;57039;48.014;21.384;2023-03-01T00:17:33;101771.63;;;2.59;97.75
69766;BME280;57039;48.014;21.384;2023-03-01T00:18:37;101764.72;;;2.60;97.70
69766;BME280;57039;48.014;21.384;2023-03-01T00:19:40;101766.44;;;2.59;97.56
69766;BME280;57039;48.014;21.384;2023-03-01T00:20:52;101768.16;;;2.60;97.83
69766;BME280;57039;48.014;21.384;2023-03-01T00:21:55;101773.34;;;2.65;97.93
69766;BME280;57039;48.014;21.384;2023-03-01T00:22:58;101775.94;;;2.69;97.81
69766;BME280;57039;48.014;21.384;2023-03-01T00:24:02;101772.47;;;2.70;97.86
69766;BME280;57039;48.014;21.384;2023-03-01T00:25:05;101769.88;;;2.72;98.07
69766;BME280;57039;48.014;21.384;2023-03-01T00:26:10;101779.34;;;2.74;97.82
69766;BME280;57039;48.014;21.384;2023-03-01T00:27:14;101774.19;;;2.73;97.72
69766;BME280;57039;48.014;21.384;2023-03-01T00:28:18;101772.47;;;2.73;97.47
69766;BME280;57039;48.014;21.384;2023-03-01T00:29:25;101772.47;;;2.73;97.92
69766;BME280;57039;48.014;21.384;2023-03-01T00:30:28;101770.75;;;2.76;98.16
69766;BME280;57039;48.014;21.384;2023-03-01T00:31:32;101777.62;;;2.72;97.97
69766;BME280;57039;48.014;21.384;2023-03-01T00:32:35;101775.94;;;2.69;97.57
69766;BME280;57039;48.014;21.384;2023-03-01T00:33:39;101774.22;;;2.64;97.36
69766;BME280;57039;48.014;21.384;2023-03-01T00:34:41;101774.22;;;2.64;97.33
69766;BME280;57039;48.014;21.384;2023-03-01T00:35:44;101770.75;;;2.69;97.40
69766;BME280;57039;48.014;21.384;2023-03-01T00:36:47;101751.75;;;2.63;98.09
69766;BME280;57039;48.014;21.384;2023-03-01T00:37:51;101769.00;;;2.74;97.78
69766;BME280;57039;48.014;21.384;2023-03-01T00:39:02;101764.66;;;2.78;97.64
69766;BME280;57039;48.014;21.384;2023-03-01T00:40:07;101764.66;;;2.78;97.69
69766;BME280;57039;48.014;21.384;2023-03-01T00:41:16;101767.25;;;2.80;97.79
69766;BME280;57039;48.014;21.384;2023-03-01T00:42:19;101762.94;;;2.82;97.85
69766;BME280;57039;48.014;21.384;2023-03-01T00:43:22;101760.34;;;2.80;97.48
69766;BME280;57039;48.014;21.384;2023-03-01T00:44:25;101763.81;;;2.81;97.36
69766;BME280;57039;48.014;21.384;2023-03-01T00:45:28;101756.03;;;2.78;97.08
69766;BME280;57039;48.014;21.384;2023-03-01T00:46:32;101759.47;;;2.78;97.08
69766;BME280;57039;48.014;21.384;2023-03-01T00:47:35;101760.34;;;2.77;96.87
69766;BME280;57039;48.014;21.384;2023-03-01T00:48:39;101758.63;;;2.78;97.25
69766;BME280;57039;48.014;21.384;2023-03-01T00:49:43;101761.22;;;2.79;97.50
69766;BME280;57039;48.014;21.384;2023-03-01T00:50:45;101750.00;;;2.79;97.17
69766;BME280;57039;48.014;21.384;2023-03-01T00:51:48;101751.72;;;2.78;97.07
69766;BME280;57039;48.014;21.384;2023-03-01T00:52:55;101738.78;;;2.73;97.01
69766;BME280;57039;48.014;21.384;2023-03-01T00:54:00;101758.63;;;2.79;97.16
69766;BME280;57039;48.014;21.384;2023-03-01T00:55:05;101757.78;;;2.76;97.16
69766;BME280;57039;48.014;21.384;2023-03-01T00:56:10;101756.06;;;2.76;97.01
69766;BME280;57039;48.014;21.384;2023-03-01T00:57:13;101763.81;;;2.76;96.81
69766;BME280;57039;48.014;21.384;2023-03-01T00:58:16;101766.41;;;2.76;96.67
69766;BME280;57039;48.014;21.384;2023-03-01T00:59:19;101762.09;;;2.75;96.78
69766;BME280;57039;48.014;21.384;2023-03-01T01:00:22;101772.47;;;2.73;96.82
69766;BME280;57039;48.014;21.384;2023-03-01T01:01:28;101764.69;;;2.72;96.57
69766;BME280;57039;48.014;21.384;2023-03-01T01:02:35;101760.38;;;2.71;96.61
69766;BME280;57039;48.014;21.384;2023-03-01T01:03:39;101762.09;;;2.73;96.64
69766;BME280;57039;48.014;21.384;2023-03-01T01:04:41;101762.09;;;2.72;96.64
69766;BME280;57039;48.014;21.384;2023-03-01T01:05:45;101762.09;;;2.70;96.80
69766;BME280;57039;48.014;21.384;2023-03-01T01:06:48;101756.91;;;2.69;96.89
69766;BME280;57039;48.014;21.384;2023-03-01T01:07:50;101761.28;;;2.64;97.06
69766;BME280;57039;48.014;21.384;2023-03-01T01:08:54;101759.53;;;2.54;97.41
69766;BME280;57039;48.014;21.384;2023-03-01T01:09:57;101765.59;;;2.53;97.49
69766;BME280;57039;48.014;21.384;2023-03-01T01:11:01;101756.09;;;2.55;97.59
69766;BME280;57039;48.014;21.384;2023-03-01T01:12:04;101756.09;;;2.53;97.74
69766;BME280;57039;48.014;21.384;2023-03-01T01:13:07;101765.59;;;2.51;97.71
69766;BME280;57039;48.014;21.384;2023-03-01T01:14:10;101760.41;;;2.56;97.81
69766;BME280;57039;48.014;21.384;2023-03-01T01:15:13;101769.06;;;2.51;97.79
69766;BME280;57039;48.014;21.384;2023-03-01T01:16:20;101758.72;;;2.48;97.75
69766;BME280;57039;48.014;21.384;2023-03-01T01:17:24;101769.91;;;2.50;97.83
69766;BME280;57039;48.014;21.384;2023-03-01T01:18:28;101763.88;;;2.53;97.75
69766;BME280;57039;48.014;21.384;2023-03-01T01:19:31;101765.59;;;2.54;97.88
69766;BME280;57039;48.014;21.384;2023-03-01T01:20:35;101769.06;;;2.51;97.78
69766;BME280;57039;48.014;21.384;2023-03-01T01:21:39;101768.19;;;2.49;98.18
69766;BME280;57039;48.014;21.384;2023-03-01T01:22:42;101775.09;;;2.38;99.36
69766;BME280;57039;48.014;21.384;2023-03-01T01:23:46;101766.47;;;2.41;99.37
69766;BME280;57039;48.014;21.384;2023-03-01T01:24:50;101765.63;;;2.26;100.00
69766;BME280;57039;48.014;21.384;2023-03-01T01:25:53;101768.22;;;2.25;100.00
69766;BME280;57039;48.014;21.384;2023-03-01T01:26:56;101761.28;;;2.30;100.00
69766;BME280;57039;48.014;21.384;2023-03-01T01:27:59;101753.53;;;2.36;100.00
69766;BME280;57039;48.014;21.384;2023-03-01T01:29:04;101758.69;;;2.39;100.00
69766;BME280;57039;48.014;21.384;2023-03-01T01:30:08;101753.53;;;2.36;100.00
69766;BME280;57039;48.014;21.384;2023-03-01T01:31:14;101752.66;;;2.33;100.00
69766;BME280;57039;48.014;21.384;2023-03-01T01:32:17;101758.69;;;2.36;100.00
69766;BME280;57039;48.014;21.384;2023-03-01T01:33:20;101750.94;;;2.36;100.00
69766;BME280;57039;48.014;21.384;2023-03-01T01:34:23;101700.06;;;1.98;100.00
69766;BME280;57039;48.014;21.384;2023-03-01T01:35:27;101754.41;;;2.32;100.00
69766;BME280;57039;48.014;21.384;2023-03-01T01:36:31;101752.66;;;2.33;100.00
69766;BME280;57039;48.014;21.384;2023-03-01T01:37:35;101752.69;;;2.31;100.00
69766;BME280;57039;48.014;21.384;2023-03-01T01:38:39;101754.41;;;2.29;100.00
69766;BME280;57039;48.014;21.384;2023-03-01T01:39:42;101753.53;;;2.33;100.00
69766;BME280;57039;48.014;21.384;2023-03-01T01:40:48;101750.09;;;2.29;100.00
69766;BME280;57039;48.014;21.384;2023-03-01T01:41:51;101737.12;;;2.23;100.00
69766;BME280;57039;48.014;21.384;2023-03-01T01:42:54;101744.91;;;2.33;100.00
69766;BME280;57039;48.014;21.384;2023-03-01T01:44:23;101746.63;;;2.35;100.00
69766;BME280;57039;48.014;21.384;2023-03-01T01:45:34;101754.41;;;2.35;100.00
69766;BME280;57039;48.014;21.384;2023-03-01T01:46:41;101756.09;;;2.36;100.00
69766;BME280;57039;48.014;21.384;2023-03-01T01:47:45;101758.72;;;2.38;100.00
69766;BME280;57039;48.014;21.384;2023-03-01T01:48:55;101745.78;;;2.28;100.00
69766;BME280;57039;48.014;21.384;2023-03-01T01:49:59;101754.41;;;2.37;100.00
69766;BME280;57039;48.014;21.384;2023-03-01T01:51:02;101751.78;;;2.38;100.00
69766;BME280;57039;48.014;21.384;2023-03-01T01:52:34;101756.97;;;2.35;100.00
69766;BME280;57039;48.014;21.384;2023-03-01T01:53:39;101755.25;;;2.36;100.00
69766;BME280;57039;48.014;21.384;2023-03-01T01:56:08;101759.59;;;2.40;99.12
69766;BME280;57039;48.014;21.384;2023-03-01T01:57:16;101756.97;;;2.44;99.35
69766;BME280;57039;48.014;21.384;2023-03-01T01:58:24;101755.25;;;2.43;99.42
69766;BME280;57039;48.014;21.384;2023-03-01T01:59:31;101747.47;;;2.48;99.26
69766;BME280;57039;48.014;21.384;2023-03-01T02:00:37;101745.75;;;2.50;99.05
69766;BME280;57039;48.014;21.384;2023-03-01T02:01:41;101738.84;;;2.47;99.01
69766;BME280;57039;48.014;21.384;2023-03-01T02:02:46;101737.12;;;2.46;98.94
69766;BME280;57039;48.014;21.384;2023-03-01T02:03:51;101731.94;;;2.40;98.67
69766;BME280;57039;48.014;21.384;2023-03-01T02:05:06;101728.50;;;2.35;98.74
69766;BME280;57039;48.014;21.384;2023-03-01T02:07:21;101748.34;;;2.36;99.01
69766;BME280;57039;48.014;21.384;2023-03-01T02:08:28;101744.06;;;2.34;98.70
69766;BME280;57039;48.014;21.384;2023-03-01T02:09:35;101742.31;;;2.31;98.57
69766;BME280;57039;48.014;21.384;2023-03-01T02:10:38;101747.50;;;2.28;98.28
69766;BME280;57039;48.014;21.384;2023-03-01T02:11:43;101743.19;;;2.28;98.17
69766;BME280;57039;48.014;21.384;2023-03-01T02:12:46;101753.53;;;2.30;98.35
69766;BME280;57039;48.014;21.384;2023-03-01T02:13:50;101750.09;;;2.28;98.30
69766;BME280;57039;48.014;21.384;2023-03-01T02:14:53;101747.50;;;2.28;98.31
69766;BME280;57039;48.014;21.384;2023-03-01T02:15:56;101744.91;;;2.29;98.30
69766;BME280;57039;48.014;21.384;2023-03-01T02:16:59;101746.63;;;2.26;98.42
69766;BME280;57039;48.014;21.384;2023-03-01T02:18:03;101740.59;;;2.25;98.56
69766;BME280;57039;48.014;21.384;2023-03-01T02:19:09;101733.69;;;2.26;98.53
69766;BME280;57039;48.014;21.384;2023-03-01T02:20:35;101741.47;;;2.24;98.54
69766;BME280;57039;48.014;21.384;2023-03-01T02:22:01;101744.91;;;2.23;98.30
69766;BME280;57039;48.014;21.384;2023-03-01T02:23:08;101742.31;;;2.23;98.45
69766;BME280;57039;48.014;21.384;2023-03-01T02:26:47;101734.56;;;2.25;98.59
69766;BME280;57039;48.014;21.384;2023-03-01T02:29:18;101732.84;;;2.22;98.65
69766;BME280;57039;48.014;21.384;2023-03-01T02:30:22;101729.38;;;2.23;98.70
69766;BME280;57039;48.014;21.384;2023-03-01T02:31:26;101715.56;;;2.15;98.51
69766;BME280;57039;48.014;21.384;2023-03-01T02:32:46;101728.50;;;2.23;98.62
69766;BME280;57039;48.014;21.384;2023-03-01T02:33:51;101728.50;;;2.21;98.54
69766;BME280;57039;48.014;21.384;2023-03-01T02:34:55;101733.69;;;2.23;98.57
69766;BME280;57039;48.014;21.384;2023-03-01T02:36:10;101722.47;;;2.22;98.50
69766;BME280;57039;48.014;21.384;2023-03-01T02:37:16;101730.25;;;2.18;98.46
69766;BME280;57039;48.014;21.384;2023-03-01T02:38:32;101738.00;;;2.21;98.49
69766;BME280;57039;48.014;21.384;2023-03-01T02:39:48;101743.19;;;2.21;98.78
69766;BME280;57039;48.014;21.384;2023-03-01T02:40:53;101731.97;;;2.22;98.63
69766;BME280;57039;48.014;21.384;2023-03-01T02:41:57;101726.81;;;2.22;98.83
69766;BME280;57039;48.014;21.384;2023-03-01T02:43:04;101727.66;;;2.18;98.70
69766;BME280;57039;48.014;21.384;2023-03-01T02:44:10;101725.06;;;2.25;98.87
69766;BME280;57039;48.014;21.384;2023-03-01T02:45:13;101717.28;;;2.21;99.16
69766;BME280;57039;48.014;21.384;2023-03-01T02:46:19;101727.63;;;2.24;99.23
69766;BME280;57039;48.014;21.384;2023-03-01T02:47:22;101731.09;;;2.23;98.99
69766;BME280;57039;48.014;21.384;2023-03-01T02:48:26;101724.22;;;2.19;98.87
69766;BME280;57039;48.014;21.384;2023-03-01T02:49:34;101729.38;;;2.17;98.53
69766;BME280;57039;48.014;21.384;2023-03-01T02:51:05;101734.56;;;2.17;98.44
69766;BME280;57039;48.014;21.384;2023-03-01T02:53:58;101735.44;;;2.16;98.06
69766;BME280;57039;48.014;21.384;2023-03-01T02:55:08;101730.25;;;2.15;98.10
69766;BME280;57039;48.014;21.384;2023-03-01T02:56:13;101737.16;;;2.16;97.94
69766;BME280;57039;48.014;21.384;2023-03-01T02:57:17;101728.50;;;2.18;98.22
69766;BME280;57039;48.014;21.384;2023-03-01T02:58:21;101731.09;;;2.18;98.00
69766;BME280;57039;48.014;21.384;2023-03-01T02:59:28;101731.97;;;2.19;98.17
69766;BME280;57039;48.014;21.384;2023-03-01T03:00:40;101728.50;;;2.23;98.08
69766;BME280;57039;48.014;21.384;2023-03-01T03:01:48;101722.47;;;2.21;97.75
69766;BME280;57039;48.014;21.384;2023-03-01T03:02:52;101725.91;;;2.18;97.66
69766;BME280;57039;48.014;21.384;2023-03-01T03:03:55;101724.22;;;2.19;97.65
69766;BME280;57039;48.014;21.384;2023-03-01T03:04:59;101730.22;;;2.21;97.65
69766;BME280;57039;48.014;21.384;2023-03-01T03:06:02;101729.41;;;2.19;97.49
69766;BME280;57039;48.014;21.384;2023-03-01T03:07:05;101728.53;;;2.20;97.57
69766;BME280;57039;48.014;21.384;2023-03-01T03:08:08;101732.81;;;2.18;97.66
69766;BME280;57039;48.014;21.384;2023-03-01T03:09:12;101727.66;;;2.16;97.47
69766;BME280;57039;48.014;21.384;2023-03-01T03:10:22;101724.22;;;2.14;97.82
69766;BME280;57039;48.014;21.384;2023-03-01T03:11:26;101725.91;;;2.18;97.65
69766;BME280;57039;48.014;21.384;2023-03-01T03:12:29;101731.13;;;2.14;97.67
69766;BME280;57039;48.014;21.384;2023-03-01T03:13:32;101733.69;;;2.14;97.67
69766;BME280;57039;48.014;21.384;2023-03-01T03:14:35;101719.03;;;2.05;97.44
69766;BME280;57039;48.014;21.384;2023-03-01T03:15:39;101715.59;;;2.01;97.19
69766;BME280;57039;48.014;21.384;2023-03-01T03:16:46;101731.13;;;2.08;97.13
69766;BME280;57039;48.014;21.384;2023-03-01T03:17:51;101726.81;;;2.05;97.06
69766;BME280;57039;48.014;21.384;2023-03-01T03:18:55;101726.78;;;2.00;97.09
69766;BME280;57039;48.014;21.384;2023-03-01T03:20:09;101726.81;;;1.96;97.05
69766;BME280;57039;48.014;21.384;2023-03-01T03:21:15;101726.78;;;1.97;97.11
69766;BME280;57039;48.014;21.384;2023-03-01T03:22:18;101727.69;;;1.95;97.20
69766;BME280;57039;48.014;21.384;2023-03-01T03:23:21;101723.34;;;1.92;97.28
69766;BME280;57039;48.014;21.384;2023-03-01T03:24:24;101726.78;;;1.91;97.34
69766;BME280;57039;48.014;21.384;2023-03-01T03:25:28;101713.84;;;1.79;97.39
69766;BME280;57039;48.014;21.384;2023-03-01T03:26:32;101729.38;;;1.83;97.36
69766;BME280;57039;48.014;21.384;2023-03-01T03:27:35;101731.09;;;1.78;97.46
69766;BME280;57039;48.014;21.384;2023-03-01T03:28:38;101727.66;;;1.75;97.45
69766;BME280;57039;48.014;21.384;2023-03-01T03:29:42;101725.94;;;1.71;97.44
69766;BME280;57039;48.014;21.384;2023-03-01T03:30:45;101726.78;;;1.71;97.42
69766;BME280;57039;48.014;21.384;2023-03-01T03:31:49;101725.94;;;1.74;97.49
69766;BME280;57039;48.014;21.384;2023-03-01T03:32:52;101726.78;;;1.70;97.65
69766;BME280;57039;48.014;21.384;2023-03-01T03:33:55;101725.94;;;1.65;97.67
69766;BME280;57039;48.014;21.384;2023-03-01T03:34:59;101725.94;;;1.62;97.75
69766;BME280;57039;48.014;21.384;2023-03-01T03:36:02;101726.78;;;1.60;97.93
69766;BME280;57039;48.014;21.384;2023-03-01T03:37:06;101724.19;;;1.57;97.88
69766;BME280;57039;48.014;21.384;2023-03-01T03:38:28;101727.63;;;1.59;97.88
69766;BME280;57039;48.014;21.384;2023-03-01T03:39:31;101737.09;;;1.54;97.92
69766;BME280;57039;48.014;21.384;2023-03-01T03:40:39;101732.78;;;1.52;98.11
69766;BME280;57039;48.014;21.384;2023-03-01T03:41:42;101731.06;;;1.48;98.22
69766;BME280;57039;48.014;21.384;2023-03-01T03:42:45;101730.19;;;1.46;98.26
69766;BME280;57039;48.014;21.384;2023-03-01T03:43:48;101730.19;;;1.44;98.26
69766;BME280;57039;48.014;21.384;2023-03-01T03:44:51;101731.03;;;1.43;98.41
69766;BME280;57039;48.014;21.384;2023-03-01T03:45:54;101731.87;;;1.41;98.40
69766;BME280;57039;48.014;21.384;2023-03-01T03:46:57;101738.78;;;1.37;98.56
69766;BME280;57039;48.014;21.384;2023-03-01T03:48:02;101742.22;;;1.36;98.65
69766;BME280;57039;48.014;21.384;2023-03-01T03:49:06;101743.94;;;1.34;98.73
69766;BME280;57039;48.014;21.384;2023-03-01T03:50:13;101740.50;;;1.30;98.83
69766;BME280;57039;48.014;21.384;2023-03-01T03:51:17;101741.34;;;1.31;98.75
69766;BME280;57039;48.014;21.384;2023-03-01T03:52:20;101739.63;;;1.27;98.78
69766;BME280;57039;48.014;21.384;2023-03-01T03:53:26;101737.91;;;1.26;98.90
69766;BME280;57039;48.014;21.384;2023-03-01T03:54:29;101738.75;;;1.25;99.03
69766;BME280;57039;48.014;21.384;2023-03-01T03:55:33;101743.06;;;1.21;99.16
69766;BME280;57039;48.014;21.384;2023-03-01T03:56:36;101742.19;;;1.14;99.13
69766;BME280;57039;48.014;21.384;2023-03-01T03:57:41;101746.50;;;1.22;99.12
69766;BME280;57039;48.014;21.384;2023-03-01T03:58:46;101750.78;;;1.18;99.27
69766;BME280;57039;48.014;21.384;2023-03-01T03:59:49;101749.06;;;1.19;99.09
69766;BME280;57039;48.014;21.384;2023-03-01T04:00:55;101748.19;;;1.20;99.07
69766;BME280;57039;48.014;21.384;2023-03-01T04:02:00;101745.63;;;1.21;99.06
69766;BME280;57039;48.014;21.384;2023-03-01T04:03:04;101742.16;;;1.19;99.09
69766;BME280;57039;48.014;21.384;2023-03-01T04:04:07;101749.06;;;1.19;99.11
69766;BME280;57039;48.014;21.384;2023-03-01T04:05:12;101750.78;;;1.15;99.05
69766;BME280;57039;48.014;21.384;2023-03-01T04:06:15;101752.50;;;1.13;99.18
69766;BME280;57039;48.014;21.384;2023-03-01T04:07:18;101755.94;;;1.13;99.26
69766;BME280;57039;48.014;21.384;2023-03-01T04:08:22;101749.94;;;1.14;99.31
69766;BME280;57039;48.014;21.384;2023-03-01T04:09:25;101741.28;;;1.02;99.28
69766;BME280;57039;48.014;21.384;2023-03-01T04:10:30;101757.66;;;1.11;99.35
69766;BME280;57039;48.014;21.384;2023-03-01T04:11:33;101751.63;;;1.11;99.44
69766;BME280;57039;48.014;21.384;2023-03-01T04:12:37;101755.06;;;1.08;99.52
69766;BME280;57039;48.014;21.384;2023-03-01T04:13:40;101754.22;;;1.08;99.60
69766;BME280;57039;48.014;21.384;2023-03-01T04:14:42;101751.63;;;1.08;99.59
69766;BME280;57039;48.014;21.384;2023-03-01T04:15:49;101754.19;;;1.09;99.54
69766;BME280;57039;48.014;21.384;2023-03-01T04:16:53;101755.09;;;1.11;99.55
69766;BME280;57039;48.014;21.384;2023-03-01T04:17:56;101748.19;;;1.13;99.49
69766;BME280;57039;48.014;21.384;2023-03-01T04:18:59;101749.06;;;1.14;99.48
69766;BME280;57039;48.014;21.384;2023-03-01T04:20:03;101753.34;;;1.13;99.57
69766;BME280;57039;48.014;21.384;2023-03-01T04:21:08;101746.47;;;1.11;99.59
69766;BME280;57039;48.014;21.384;2023-03-01T04:22:11;101749.91;;;1.11;99.63
69766;BME280;57039;48.014;21.384;2023-03-01T04:23:20;101743.00;;;1.13;99.64
69766;BME280;57039;48.014;21.384;2023-03-01T04:24:25;101751.63;;;1.11;99.73
69766;BME280;57039;48.014;21.384;2023-03-01T04:25:28;101747.31;;;1.10;99.72
69766;BME280;57039;48.014;21.384;2023-03-01T04:26:32;101745.59;;;1.12;99.78
69766;BME280;57039;48.014;21.384;2023-03-01T04:27:36;101744.72;;;1.13;99.80
69766;BME280;57039;48.014;21.384;2023-03-01T04:28:41;101744.75;;;1.18;99.82
69766;BME280;57039;48.014;21.384;2023-03-01T04:29:48;101743.91;;;1.17;100.00
69766;BME280;57039;48.014;21.384;2023-03-01T04:30:52;101737.84;;;1.15;100.00
69766;BME280;57039;48.014;21.384;2023-03-01T04:31:55;101739.56;;;1.13;100.00
69766;BME280;57039;48.014;21.384;2023-03-01T04:32:58;101741.28;;;1.09;100.00
69766;BME280;57039;48.014;21.384;2023-03-01T04:34:01;101746.44;;;1.06;100.00
69766;BME280;57039;48.014;21.384;2023-03-01T04:35:05;101740.41;;;1.04;100.00
69766;BME280;57039;48.014;21.384;2023-03-01T04:36:09;101743.00;;;1.07;100.00
69766;BME280;57039;48.014;21.384;2023-03-01T04:37:12;101742.13;;;1.10;100.00
69766;BME280;57039;48.014;21.384;2023-03-01T04:38:20;101738.72;;;1.12;100.00
69766;BME280;57039;48.014;21.384;2023-03-01T04:39:24;101730.09;;;1.13;100.00
69766;BME280;57039;48.014;21.384;2023-03-01T04:40:27;101738.72;;;1.11;100.00
69766;BME280;57039;48.014;21.384;2023-03-01T04:41:30;101717.13;;;0.98;100.00
69766;BME280;57039;48.014;21.384;2023-03-01T04:42:33;101735.25;;;1.07;100.00
69766;BME280;57039;48.014;21.384;2023-03-01T04:43:36;101732.63;;;1.04;100.00
69766;BME280;57039;48.014;21.384;2023-03-01T04:44:39;101732.63;;;1.04;100.00
69766;BME280;57039;48.014;21.384;2023-03-01T04:45:43;101729.22;;;1.10;100.00
69766;BME280;57039;48.014;21.384;2023-03-01T04:46:48;101731.81;;;1.11;100.00
69766;BME280;57039;48.014;21.384;2023-03-01T04:47:52;101729.22;;;1.13;100.00
69766;BME280;57039;48.014;21.384;2023-03-01T04:48:56;101732.69;;;1.17;100.00
69766;BME280;57039;48.014;21.384;2023-03-01T04:49:59;101721.50;;;1.18;100.00
69766;BME280;57039;48.014;21.384;2023-03-01T04:51:03;101721.50;;;1.22;100.00
69766;BME280;57039;48.014;21.384;2023-03-01T04:52:06;101718.06;;;1.22;100.00
69766;BME280;57039;48.014;21.384;2023-03-01T04:53:09;101719.78;;;1.20;100.00
69766;BME280;57039;48.014;21.384;2023-03-01T04:54:12;101714.63;;;1.21;100.00
69766;BME280;57039;48.014;21.384;2023-03-01T04:55:15;101713.75;;;1.22;100.00
69766;BME280;57039;48.014;21.384;2023-03-01T04:56:18;101715.47;;;1.22;100.00
69766;BME280;57039;48.014;21.384;2023-03-01T04:57:20;101711.19;;;1.24;100.00
69766;BME280;57039;48.014;21.384;2023-03-01T04:58:26;101710.31;;;1.25;100.00
69766;BME280;57039;48.014;21.384;2023-03-01T04:59:29;101712.91;;;1.23;100.00
69766;BME280;57039;48.014;21.384;2023-03-01T05:00:32;101700.84;;;1.18;100.00
69766;BME280;57039;48.014;21.384;2023-03-01T05:01:34;101707.72;;;1.25;100.00
69766;BME280;57039;48.014;21.384;2023-03-01T05:02:37;101710.31;;;1.28;100.00
69766;BME280;57039;48.014;21.384;2023-03-01T05:03:44;101715.50;;;1.26;100.00
69766;BME280;57039;48.014;21.384;2023-03-01T05:04:47;101704.31;;;1.23;100.00
69766;BME280;57039;48.014;21.384;2023-03-01T05:05:52;101704.31;;;1.23;100.00
69766;BME280;57039;48.014;21.384;2023-03-01T05:06:55;101706.91;;;1.26;100.00
69766;BME280;57039;48.014;21.384;2023-03-01T05:08:04;101706.88;;;1.24;100.00
69766;BME280;57039;48.014;21.384;2023-03-01T05:09:08;101704.31;;;1.26;100.00
69766;BME280;57039;48.014;21.384;2023-03-01T05:10:11;101710.31;;;1.25;100.00
69766;BME280;57039;48.014;21.384;2023-03-01T05:11:15;101706.84;;;1.20;100.00
69766;BME280;57039;48.014;21.384;2023-03-01T05:12:18;101706.84;;;1.18;100.00
69766;BME280;57039;48.014;21.384;2023-03-01T05:13:20;101704.25;;;1.13;100.00
69766;BME280;57039;48.014;21.384;2023-03-01T05:14:23;101711.16;;;1.16;100.00
69766;BME280;57039;48.014;21.384;2023-03-01T05:15:27;101716.31;;;1.14;100.00
69766;BME280;57039;48.014;21.384;2023-03-01T05:16:31;101714.59;;;1.13;100.00
69766;BME280;57039;48.014;21.384;2023-03-01T05:17:37;101711.16;;;1.18;100.00
69766;BME280;57039;48.014;21.384;2023-03-01T05:18:41;101715.47;;;1.14;100.00
69766;BME280;57039;48.014;21.384;2023-03-01T05:19:44;101718.91;;;1.11;100.00
69766;BME280;57039;48.014;21.384;2023-03-01T05:20:48;101717.16;;;1.09;100.00
69766;BME280;57039;48.014;21.384;2023-03-01T05:21:51;101720.59;;;1.09;100.00
69766;BME280;57039;48.014;21.384;2023-03-01T05:23:06;101719.75;;;1.09;100.00
69766;BME280;57039;48.014;21.384;2023-03-01T05:24:09;101718.03;;;1.05;100.00
69766;BME280;57039;48.014;21.384;2023-03-01T05:25:14;101725.75;;;1.06;100.00
69766;BME280;57039;48.014;21.384;2023-03-01T05:26:19;101727.47;;;1.03;100.00
69766;BME280;57039;48.014;21.384;2023-03-01T05:27:30;101728.34;;;1.02;100.00
69766;BME280;57039;48.014;21.384;2023-03-01T05:28:34;101729.19;;;0.99;100.00
69766;BME280;57039;48.014;21.384;2023-03-01T05:29:37;101737.78;;;0.98;100.00
69766;BME280;57039;48.014;21.384;2023-03-01T05:30:41;101731.75;;;0.95;100.00
69766;BME280;57039;48.014;21.384;2023-03-01T05:31:44;101736.94;;;0.96;100.00
69766;BME280;57039;48.014;21.384;2023-03-01T05:32:49;101738.63;;;0.96;100.00
69766;BME280;57039;48.014;21.384;2023-03-01T05:33:52;101735.19;;;0.92;100.00
69766;BME280;57039;48.014;21.384;2023-03-01T05:34:55;101741.19;;;0.93;100.00
69766;BME280;57039;48.014;21.384;2023-03-01T05:36:00;101736.94;;;0.93;100.00
69766;BME280;57039;48.014;21.384;2023-03-01T05:37:03;101738.63;;;0.93;100.00
69766;BME280;57039;48.014;21.384;2023-03-01T05:38:12;101739.53;;;0.96;100.00
69766;BME280;57039;48.014;21.384;2023-03-01T05:39:23;101743.81;;;0.97;100.00
69766;BME280;57039;48.014;21.384;2023-03-01T05:40:27;101740.38;;;0.97;100.00
69766;BME280;57039;48.014;21.384;2023-03-01T05:41:30;101719.69;;;0.92;100.00
69766;BME280;57039;48.014;21.384;2023-03-01T05:42:33;101735.22;;;1.00;100.00
69766;BME280;57039;48.014;21.384;2023-03-01T05:43:36;101736.97;;;1.05;100.00
69766;BME280;57039;48.014;21.384;2023-03-01T05:44:38;101735.25;;;1.07;100.00
69766;BME280;57039;48.014;21.384;2023-03-01T05:45:42;101733.53;;;1.09;100.00
69766;BME280;57039;48.014;21.384;2023-03-01T05:46:44;101734.41;;;1.11;100.00